Terminal Aerodrome Forecast
Issued by NWS

Home | Current Version | Previous Version | Graphics & Text | Print | Product List | Glossary On
Versions: 1 2 3 4 5 6 7 8 9 10 11 12 13 14
000
FTUS43 KMPX 272320
TAFAXN
TAF
KAXN 272320Z 2800/2824 VRB03KT P6SM SCT200
     FM280600 VRB03KT P6SM BKN120
     FM281100 35006KT P6SM VCSH BKN050 OVC090
     FM281700 35009KT P6SM SCT040 SCT100
     FM282100 35010G15KT P6SM SKC=

USA.gov is the U.S. government's official web portal to all federal, state and local government web resources and services.